Lady Ann Magee — 9HA2775 — position and weather

sailwx.info

Track history (hours):
 
Tides and Currents Weather Stations Pressure Air Temp Water Temp Dewpoint Dewpoint Depression Visibility Wind Speed Wind Dir Waves Ship Positions

Lady Ann Magee

Last reported at 2017-May-21 15:54 UTC. Time now 2017-May-23 17:03 UTC.
Position N 43°44' E 007°25'.

Length 49 m; draft 3.4 m.

Type: Pleasure craft. MMSI: 215660000.

Date/timePositionNaut miles runAvg speedWind from/ knotsBaromVisibWave heightAir tempDewpointWater temp
2017-May-21 15:54N 43°44' E 007°25'1 1.9
2017-May-21 15:30N 43°44' E 007°26'612.3
2017-May-21 15:00N 43°39' E 007°21'612.5
2017-May-21 14:30N 43°35' E 007°14'1110.5
2017-May-21 13:29N 43°30' E 007°01'2 0.8
2017-May-21 10:58N 43°32' E 007°01'0 0.0
2017-May-21 10:29N 43°32' E 007°01'4 8.0
2017-May-21 10:01N 43°29' E 007°03'712.9
2017-May-21 09:30N 43°33' E 007°11'612.8
2017-May-21 09:00N 43°37' E 007°17'612.7
2017-May-21 08:30N 43°41' E 007°24'3 0.2
2017-May-20 19:16N 43°44' E 007°25'0 0.0
2017-May-20 18:55N 43°44' E 007°25'0 0.0
2017-May-20 18:28N 43°44' E 007°25'0 0.0
2017-May-20 17:49N 43°44' E 007°25'0 0.0
2017-May-20 17:19N 43°44' E 007°25'0 0.0
2017-May-19 03:13N 43°44' E 007°25'0 0.0
2017-May-19 01:46N 43°44' E 007°25'0 0.0
2017-May-19 01:28N 43°44' E 007°25'1 0.1
2017-May-18 11:06N 43°43' E 007°25'3 8.5
2017-May-18 10:41N 43°42' E 007°20'0 0.0
2017-May-18 10:08N 43°42' E 007°20'0 0.1
2017-May-18 09:56N 43°42' E 007°20'0 0.0
2017-May-18 09:14N 43°42' E 007°20'0 0.0
2017-May-18 04:35N 43°42' E 007°21'0 0.0
2017-May-18 04:23N 43°42' E 007°21'0 0.0
2017-May-18 03:53N 43°42' E 007°20'0 0.0
2017-May-18 03:23N 43°42' E 007°21'0 0.0
2017-May-18 02:56N 43°42' E 007°21'0 0.0
2017-May-18 00:20N 43°42' E 007°21'0 0.0
2017-May-17 23:53N 43°42' E 007°21'0 0.0
2017-May-17 23:29N 43°42' E 007°21'0 0.0
2017-May-17 22:50N 43°42' E 007°21'0 0.0
2017-May-17 22:26N 43°42' E 007°21'0 0.0
2017-May-17 21:59N 43°42' E 007°21'0 0.0
2017-May-17 21:26N 43°42' E 007°21'0 0.0
2017-May-17 20:59N 43°42' E 007°21'0 0.0
2017-May-17 20:26N 43°42' E 007°21'0 0.0
2017-May-17 19:41N 43°42' E 007°21'0 0.0
2017-May-17 19:11N 43°42' E 007°21'0 0.0
2017-May-17 18:53N 43°42' E 007°21'0 0.0
2017-May-17 18:20N 43°42' E 007°21'0 0.0
2017-May-17 18:00N 43°42' E 007°20'4 7.2
2017-May-17 17:30N 43°39' E 007°20'612.2
2017-May-17 17:01N 43°34' E 007°14'612.1
2017-May-17 16:30N 43°30' E 007°09'712.4
2017-May-17 15:58N 43°24' E 007°03'53 9.3
2017-May-17 10:18N 43°06' E 005°55'1 4.0
2017-May-17 09:57N 43°06' E 005°53'0 0.0
2017-May-17 09:30N 43°06' E 005°53'0 0.0
2017-May-17 08:57N 43°06' E 005°53'0 0.0
2017-May-17 08:30N 43°06' E 005°53'0 0.0
2017-May-17 07:58N 43°06' E 005°53'0 0.0
2017-May-17 07:30N 43°06' E 005°53'0 0.0
2017-May-17 07:01N 43°06' E 005°53'0 0.0
2017-May-17 06:27N 43°06' E 005°53'0 0.0
2017-May-17 06:00N 43°06' E 005°53'0 0.0
2017-May-17 05:30N 43°06' E 005°53'0 0.0
2017-May-17 05:00N 43°06' E 005°53'0 0.0
2017-May-17 04:30N 43°06' E 005°53'0 0.0
2017-May-17 03:58N 43°06' E 005°53'0 0.0
2017-May-17 03:28N 43°06' E 005°53'0 0.0
2017-May-17 02:58N 43°06' E 005°53'0 0.0
2017-May-17 02:28N 43°06' E 005°53'0 0.0
2017-May-17 01:58N 43°06' E 005°53'0 0.0
2017-May-17 01:28N 43°06' E 005°53'0 0.0
2017-May-17 00:57N 43°06' E 005°53'0 0.0
2017-May-17 00:28N 43°06' E 005°53'0 0.0
2017-May-17 00:00N 43°06' E 005°53'0 0.0
2017-May-16 23:28N 43°06' E 005°53'0 0.0
2017-May-16 22:58N 43°06' E 005°53'0 0.0
2017-May-16 22:30N 43°06' E 005°53'0 0.0
2017-May-16 21:57N 43°06' E 005°53'0 0.0
2017-May-16 21:27N 43°06' E 005°53'0 0.0
2017-May-16 20:57N 43°06' E 005°53'0 0.0
2017-May-16 20:27N 43°06' E 005°53'0 0.0
2017-May-16 20:00N 43°06' E 005°53'0 0.0
2017-May-16 19:28N 43°06' E 005°53'0 0.0
2017-May-16 19:00N 43°06' E 005°53'0 0.0
2017-May-16 18:30N 43°06' E 005°53'0 0.0
2017-May-16 17:58N 43°06' E 005°53'0 0.0
2017-May-16 17:30N 43°06' E 005°53'0 0.0
2017-May-16 17:00N 43°06' E 005°53'0 0.0
2017-May-16 16:30N 43°06' E 005°53'0 0.0
2017-May-16 16:00N 43°06' E 005°53'0 0.0
2017-May-16 15:30N 43°06' E 005°53'0 0.0
2017-May-16 15:00N 43°06' E 005°53'0 0.0
2017-May-16 14:30N 43°06' E 005°53'0 0.0
2017-May-16 13:28N 43°06' E 005°53'0 0.0
2017-May-16 12:58N 43°06' E 005°53'0 0.0
2017-May-16 12:30N 43°06' E 005°53'0 0.0
2017-May-16 12:00N 43°06' E 005°53'0 0.0
2017-May-16 11:30N 43°06' E 005°53'0 0.0
2017-May-16 10:54N 43°06' E 005°53'0 0.0
2017-May-16 10:31N 43°06' E 005°53'0 0.0
2017-May-16 09:57N 43°06' E 005°53'0 0.0
2017-May-16 09:27N 43°06' E 005°53'0 0.0
2017-May-16 09:00N 43°06' E 005°53'0 0.0
2017-May-16 08:27N 43°06' E 005°53'0 0.0
2017-May-16 07:58N 43°06' E 005°53'0 0.0
2017-May-16 07:30N 43°06' E 005°53'0 0.0
2017-May-16 06:58N 43°06' E 005°53'0 0.0
2017-May-16 06:30N 43°06' E 005°53'0 0.0
2017-May-16 06:00N 43°06' E 005°53'0 0.0
2017-May-16 05:30N 43°06' E 005°53'0 0.0
2017-May-16 05:00N 43°06' E 005°53'0 0.0
2017-May-16 04:30N 43°06' E 005°53'0 0.0
2017-May-16 03:58N 43°06' E 005°53'0 0.0
2017-May-16 03:30N 43°06' E 005°53'0 0.0
2017-May-16 02:58N 43°06' E 005°53'0 0.0
2017-May-16 02:30N 43°06' E 005°53'0 0.0
2017-May-16 02:00N 43°06' E 005°53'0 0.0
2017-May-16 01:28N 43°06' E 005°53'0 0.0
2017-May-16 00:57N 43°06' E 005°53'0 0.0
2017-May-16 00:28N 43°06' E 005°53'0 0.0
2017-May-15 23:58N 43°06' E 005°53'0 0.0
2017-May-15 23:30N 43°06' E 005°53'0 0.0
2017-May-15 22:58N 43°06' E 005°53'0 0.0
2017-May-15 22:28N 43°06' E 005°53'0 0.0
2017-May-15 21:58N 43°06' E 005°53'0 0.0
2017-May-15 21:30N 43°06' E 005°53'0 0.0
2017-May-15 20:58N 43°06' E 005°53'0 0.0
2017-May-15 20:28N 43°06' E 005°53'0 0.0
2017-May-15 20:00N 43°06' E 005°53'0 0.0
2017-May-15 19:30N 43°06' E 005°53'0 0.0
2017-May-15 19:00N 43°06' E 005°53'0 0.0
2017-May-15 18:30N 43°06' E 005°53'0 0.0
2017-May-15 17:57N 43°06' E 005°53'0 0.0
2017-May-15 17:27N 43°06' E 005°53'0 0.0
2017-May-15 16:58N 43°06' E 005°53'0 0.0
2017-May-15 16:28N 43°06' E 005°53'0 0.0
2017-May-15 15:58N 43°06' E 005°53'0 0.0
2017-May-15 15:30N 43°06' E 005°53'0 0.0
2017-May-15 14:57N 43°06' E 005°53'0 0.0
2017-May-15 14:31N 43°06' E 005°53'0 0.0
2017-May-15 13:30N 43°06' E 005°53'0 0.0
2017-May-15 12:58N 43°06' E 005°53'0 0.0
2017-May-15 12:30N 43°06' E 005°53'0 0.0
2017-May-15 11:57N 43°06' E 005°53'0 0.0
2017-May-15 11:28N 43°06' E 005°53'0 0.0
2017-May-15 10:57N 43°06' E 005°53'0 0.0
2017-May-15 10:27N 43°06' E 005°53'0 0.0
2017-May-15 09:57N 43°06' E 005°53'0 0.0
2017-May-15 09:28N 43°06' E 005°53'0 0.0
2017-May-15 09:00N 43°06' E 005°53'0 0.0
2017-May-15 08:28N 43°06' E 005°53'0 0.0
2017-May-15 07:58N 43°06' E 005°53'0 0.0
2017-May-15 07:30N 43°06' E 005°53'0 0.0
2017-May-15 07:00N 43°06' E 005°53'0 0.0
2017-May-15 06:30N 43°06' E 005°53'0 0.0
2017-May-15 06:00N 43°06' E 005°53'0 0.0
2017-May-15 05:30N 43°06' E 005°53'0 0.0
2017-May-15 05:00N 43°06' E 005°53'0 0.0
2017-May-15 04:30N 43°06' E 005°53'0 0.0
2017-May-15 04:00N 43°06' E 005°53'0 0.0
2017-May-15 03:30N 43°06' E 005°53'0 0.0
2017-May-15 03:00N 43°06' E 005°53'0 0.0
2017-May-15 02:30N 43°06' E 005°53'0 0.0
2017-May-15 02:00N 43°06' E 005°53'0 0.0
2017-May-15 01:30N 43°06' E 005°53'0 0.0
2017-May-15 01:01N 43°06' E 005°53'0 0.0
2017-May-15 00:30N 43°06' E 005°53'0 0.0
2017-May-15 00:00N 43°06' E 005°53'0 0.0
2017-May-14 23:30N 43°06' E 005°53'0 0.0
2017-May-14 23:00N 43°06' E 005°53'0 0.0
2017-May-14 22:30N 43°06' E 005°53'0 0.0
2017-May-14 22:00N 43°06' E 005°53'0 0.0
2017-May-14 21:30N 43°06' E 005°53'0 0.0
2017-May-14 21:01N 43°06' E 005°53'0 0.0
2017-May-14 20:30N 43°06' E 005°53'0 0.0
2017-May-14 20:00N 43°06' E 005°53'0 0.0
2017-May-14 19:30N 43°06' E 005°53'0 0.0
2017-May-14 19:00N 43°06' E 005°53'0 0.0
2017-May-14 18:30N 43°06' E 005°53'0 0.0
2017-May-14 18:00N 43°06' E 005°53'0 0.0
2017-May-14 17:30N 43°06' E 005°53'0 0.0
2017-May-14 17:00N 43°06' E 005°53'0 0.0
2017-May-14 16:30N 43°06' E 005°53'0 0.0
2017-May-14 16:00N 43°06' E 005°53'0 0.0
2017-May-14 15:30N 43°06' E 005°53'0 0.0
2017-May-14 15:00N 43°06' E 005°53'0 0.0
2017-May-14 14:30N 43°06' E 005°53'0 0.0
2017-May-14 13:27N 43°06' E 005°53'0 0.0
2017-May-14 13:00N 43°06' E 005°53'0 0.0
2017-May-14 12:30N 43°06' E 005°53'0 0.0
2017-May-14 12:00N 43°06' E 005°53'0 0.0
2017-May-14 11:30N 43°06' E 005°53'0 0.0
2017-May-14 11:00N 43°06' E 005°53'0 0.0
2017-May-14 10:30N 43°06' E 005°53'0 0.0
2017-May-14 10:00N 43°06' E 005°53'0 0.0
2017-May-14 09:30N 43°06' E 005°53'0 0.0
2017-May-14 09:00N 43°06' E 005°53'0 0.0
2017-May-14 08:30N 43°06' E 005°53'0 0.0
2017-May-14 08:00N 43°06' E 005°53'0 0.0
2017-May-14 07:30N 43°06' E 005°53'0 0.0
2017-May-14 07:00N 43°06' E 005°53'0 0.0
2017-May-14 06:24N 43°06' E 005°53'0 0.0
2017-May-14 06:00N 43°06' E 005°53'0 0.0
2017-May-14 05:30N 43°06' E 005°53'0 0.0
2017-May-14 05:00N 43°06' E 005°53'0 0.0
2017-May-14 04:30N 43°06' E 005°53'0 0.0
2017-May-14 04:00N 43°06' E 005°53'0 0.0
2017-May-14 03:30N 43°06' E 005°53'0 0.0
2017-May-14 03:00N 43°06' E 005°53'0 0.0
2017-May-14 02:30N 43°06' E 005°53'0 0.0
2017-May-14 02:00N 43°06' E 005°53'0 0.0
2017-May-14 01:30N 43°06' E 005°53'0 0.0
2017-May-14 01:00N 43°06' E 005°53'0 0.0
2017-May-14 00:30N 43°06' E 005°53'0 0.0
2017-May-14 00:00N 43°06' E 005°53'0 0.0
2017-May-13 23:30N 43°06' E 005°53'0 0.0
2017-May-13 23:00N 43°06' E 005°53'0 0.0
2017-May-13 22:30N 43°06' E 005°53'0 0.0
2017-May-13 22:00N 43°06' E 005°53'0 0.0
2017-May-13 21:30N 43°06' E 005°53'0 0.0
2017-May-13 21:00N 43°06' E 005°53'0 0.0
2017-May-13 20:30N 43°06' E 005°53'0 0.0
2017-May-13 19:57N 43°06' E 005°53'0 0.0
2017-May-13 19:30N 43°06' E 005°53'0 0.0
2017-May-13 19:00N 43°06' E 005°53'0 0.0
2017-May-13 18:30N 43°06' E 005°53'0 0.0
2017-May-13 18:00N 43°06' E 005°53'0 0.0
2017-May-13 17:30N 43°06' E 005°53'0 0.0
2017-May-13 17:00N 43°06' E 005°53'0 0.0
2017-May-13 16:30N 43°06' E 005°53'0 0.0
2017-May-13 16:00N 43°06' E 005°53'0 0.0
2017-May-13 15:30N 43°06' E 005°53'0 0.0
2017-May-13 15:00N 43°06' E 005°53'0 0.0
2017-May-13 14:30N 43°06' E 005°53'0 0.0
2017-May-13 13:30N 43°06' E 005°53'0 0.0
2017-May-13 13:00N 43°06' E 005°53'0 0.0
2017-May-13 12:30N 43°06' E 005°53'0 0.0
2017-May-13 12:00N 43°06' E 005°53'0 0.0
2017-May-13 11:30N 43°06' E 005°53'0 0.0
2017-May-13 11:00N 43°06' E 005°53'0 0.0
2017-May-13 10:30N 43°06' E 005°53'0 0.0
2017-May-13 10:00N 43°06' E 005°53'0 0.0
2017-May-13 09:30N 43°06' E 005°53'0 0.0
2017-May-13 09:00N 43°06' E 005°53'0 0.0
2017-May-13 08:30N 43°06' E 005°53'0 0.0
2017-May-13 08:00N 43°06' E 005°53'0 0.0
2017-May-13 07:30N 43°06' E 005°53'0 0.0
2017-May-13 07:00N 43°06' E 005°53'0 0.0
2017-May-13 06:30N 43°06' E 005°53'0 0.0
2017-May-13 06:00N 43°06' E 005°53'0 0.0
2017-May-13 05:30N 43°06' E 005°53'0 0.0
2017-May-13 05:00N 43°06' E 005°53'0 0.0
2017-May-13 04:30N 43°06' E 005°53'0 0.0
2017-May-13 04:00N 43°06' E 005°53'0 0.0
2017-May-13 03:30N 43°06' E 005°53'0 0.0
2017-May-13 03:00N 43°06' E 005°53'0 0.0
2017-May-13 02:30N 43°06' E 005°53'0 0.0
2017-May-13 02:00N 43°06' E 005°53'0 0.0
2017-May-13 01:30N 43°06' E 005°53'0 0.0
2017-May-13 01:00N 43°06' E 005°53'0 0.0
2017-May-13 00:30N 43°06' E 005°53'0 0.0
2017-May-13 00:00N 43°06' E 005°53'0 0.0
2017-May-12 23:30N 43°06' E 005°53'0 0.0
2017-May-12 23:00N 43°06' E 005°53'0 0.0
2017-May-12 22:30N 43°06' E 005°53'0 0.0
2017-May-12 22:00N 43°06' E 005°53'0 0.0
2017-May-12 21:30N 43°06' E 005°53'0 0.0
2017-May-12 21:00N 43°06' E 005°53'0 0.0
2017-May-12 20:30N 43°06' E 005°53'0 0.0
2017-May-12 20:00N 43°06' E 005°53'0 0.0
2017-May-12 19:30N 43°06' E 005°53'0 0.0
2017-May-12 19:00N 43°06' E 005°53'0 0.0
2017-May-12 18:30N 43°06' E 005°53'0 0.0
2017-May-12 18:00N 43°06' E 005°53'0 0.0
2017-May-12 17:30N 43°06' E 005°53'0 0.0
2017-May-12 17:00N 43°06' E 005°53'0 0.0
2017-May-12 16:30N 43°06' E 005°53'0 0.0
2017-May-12 16:00N 43°06' E 005°53'0 0.0
2017-May-12 15:30N 43°06' E 005°53'0 0.0
2017-May-12 15:00N 43°06' E 005°53'0 0.0
2017-May-12 14:00N 43°06' E 005°53'0 0.0
2017-May-12 13:30N 43°06' E 005°53'0 0.0
2017-May-12 13:00N 43°06' E 005°53'0 0.0
2017-May-12 12:30N 43°06' E 005°53'0 0.0
2017-May-12 12:00N 43°06' E 005°53'0 0.0
2017-May-12 11:30N 43°06' E 005°53'0 0.0
2017-May-12 10:57N 43°06' E 005°53'0 0.0
2017-May-12 10:30N 43°06' E 005°53'0 0.0
2017-May-12 09:57N 43°06' E 005°53'0 0.0
2017-May-12 09:30N 43°06' E 005°53'0 0.0
2017-May-12 09:00N 43°06' E 005°53'0 0.0
2017-May-12 08:30N 43°06' E 005°53'0 0.0
2017-May-12 08:00N 43°06' E 005°53'0 0.0
2017-May-12 07:30N 43°06' E 005°53'0 0.0
2017-May-12 07:00N 43°06' E 005°53'0 0.0
2017-May-12 06:30N 43°06' E 005°53'0 0.0
2017-May-12 06:00N 43°06' E 005°53'0 0.0
2017-May-12 05:24N 43°06' E 005°53'0 0.0
2017-May-12 05:00N 43°06' E 005°53'0 0.0
2017-May-12 04:27N 43°06' E 005°53'0 0.0
2017-May-12 04:00N 43°06' E 005°53'0 0.0
2017-May-12 03:30N 43°06' E 005°53'0 0.0
2017-May-12 03:00N 43°06' E 005°53'0 0.0
2017-May-12 02:30N 43°06' E 005°53'0 0.0
2017-May-12 02:00N 43°06' E 005°53'0 0.0
2017-May-12 01:30N 43°06' E 005°53'0 0.0
2017-May-12 01:00N 43°06' E 005°53'0 0.0
2017-May-12 00:30N 43°06' E 005°53'0 0.0
2017-May-12 00:00N 43°06' E 005°53'0 0.0
2017-May-11 23:30N 43°06' E 005°53'0 0.0
2017-May-11 23:00N 43°06' E 005°53'0 0.0
2017-May-11 22:31N 43°06' E 005°53'0 0.0
2017-May-11 22:00N 43°06' E 005°53'0 0.0
2017-May-11 21:30N 43°06' E 005°53'0 0.0
2017-May-11 21:00N 43°06' E 005°53'0 0.0
2017-May-11 20:30N 43°06' E 005°53'0 0.0
2017-May-11 20:00N 43°06' E 005°53'0 0.0
2017-May-11 19:30N 43°06' E 005°53'0 0.0
2017-May-11 19:00N 43°06' E 005°53'0 0.0
2017-May-11 18:30N 43°06' E 005°53'0 0.0
2017-May-11 18:00N 43°06' E 005°53'0 0.0
2017-May-11 17:30N 43°06' E 005°53'0 0.0
2017-May-11 17:00N 43°06' E 005°53'0 0.0
2017-May-11 16:30N 43°06' E 005°53'0 0.0
2017-May-11 16:00N 43°06' E 005°53'  
Track history (hours):
 
Tides and Currents Weather Stations Pressure Air Temp Water Temp Dewpoint Dewpoint Depression Visibility Wind Speed Wind Dir Waves Ship Positions

Lady Ann Magee

Last reported at 2017-May-21 15:54 UTC. Time now 2017-May-23 17:03 UTC.
Position N 43°44' E 007°25'.

Length 49 m; draft 3.4 m.

Type: Pleasure craft. MMSI: 215660000.

Date/timePositionNaut miles runAvg speedWind from/ knotsBaromVisibWave heightAir tempDewpointWater temp
2017-May-21 15:54N 43°44' E 007°25'1 1.9
2017-May-21 15:30N 43°44' E 007°26'612.3
2017-May-21 15:00N 43°39' E 007°21'612.5
2017-May-21 14:30N 43°35' E 007°14'1110.5
2017-May-21 13:29N 43°30' E 007°01'2 0.8
2017-May-21 10:58N 43°32' E 007°01'0 0.0
2017-May-21 10:29N 43°32' E 007°01'4 8.0
2017-May-21 10:01N 43°29' E 007°03'712.9
2017-May-21 09:30N 43°33' E 007°11'612.8
2017-May-21 09:00N 43°37' E 007°17'612.7
2017-May-21 08:30N 43°41' E 007°24'3 0.2
2017-May-20 19:16N 43°44' E 007°25'0 0.0
2017-May-20 18:55N 43°44' E 007°25'0 0.0
2017-May-20 18:28N 43°44' E 007°25'0 0.0
2017-May-20 17:49N 43°44' E 007°25'0 0.0
2017-May-20 17:19N 43°44' E 007°25'0 0.0
2017-May-19 03:13N 43°44' E 007°25'0 0.0
2017-May-19 01:46N 43°44' E 007°25'0 0.0
2017-May-19 01:28N 43°44' E 007°25'1 0.1
2017-May-18 11:06N 43°43' E 007°25'3 8.5
2017-May-18 10:41N 43°42' E 007°20'0 0.0
2017-May-18 10:08N 43°42' E 007°20'0 0.1
2017-May-18 09:56N 43°42' E 007°20'0 0.0
2017-May-18 09:14N 43°42' E 007°20'0 0.0
2017-May-18 04:35N 43°42' E 007°21'0 0.0
2017-May-18 04:23N 43°42' E 007°21'0 0.0
2017-May-18 03:53N 43°42' E 007°20'0 0.0
2017-May-18 03:23N 43°42' E 007°21'0 0.0
2017-May-18 02:56N 43°42' E 007°21'0 0.0
2017-May-18 00:20N 43°42' E 007°21'0 0.0
2017-May-17 23:53N 43°42' E 007°21'0 0.0
2017-May-17 23:29N 43°42' E 007°21'0 0.0
2017-May-17 22:50N 43°42' E 007°21'0 0.0
2017-May-17 22:26N 43°42' E 007°21'0 0.0
2017-May-17 21:59N 43°42' E 007°21'0 0.0
2017-May-17 21:26N 43°42' E 007°21'0 0.0
2017-May-17 20:59N 43°42' E 007°21'0 0.0
2017-May-17 20:26N 43°42' E 007°21'0 0.0
2017-May-17 19:41N 43°42' E 007°21'0 0.0
2017-May-17 19:11N 43°42' E 007°21'0 0.0
2017-May-17 18:53N 43°42' E 007°21'0 0.0
2017-May-17 18:20N 43°42' E 007°21'0 0.0
2017-May-17 18:00N 43°42' E 007°20'4 7.2
2017-May-17 17:30N 43°39' E 007°20'612.2
2017-May-17 17:01N 43°34' E 007°14'612.1
2017-May-17 16:30N 43°30' E 007°09'712.4
2017-May-17 15:58N 43°24' E 007°03'53 9.3
2017-May-17 10:18N 43°06' E 005°55'1 4.0
2017-May-17 09:57N 43°06' E 005°53'0 0.0
2017-May-17 09:30N 43°06' E 005°53'0 0.0
2017-May-17 08:57N 43°06' E 005°53'0 0.0
2017-May-17 08:30N 43°06' E 005°53'0 0.0
2017-May-17 07:58N 43°06' E 005°53'0 0.0
2017-May-17 07:30N 43°06' E 005°53'0 0.0
2017-May-17 07:01N 43°06' E 005°53'0 0.0
2017-May-17 06:27N 43°06' E 005°53'0 0.0
2017-May-17 06:00N 43°06' E 005°53'0 0.0
2017-May-17 05:30N 43°06' E 005°53'0 0.0
2017-May-17 05:00N 43°06' E 005°53'0 0.0
2017-May-17 04:30N 43°06' E 005°53'0 0.0
2017-May-17 03:58N 43°06' E 005°53'0 0.0
2017-May-17 03:28N 43°06' E 005°53'0 0.0
2017-May-17 02:58N 43°06' E 005°53'0 0.0
2017-May-17 02:28N 43°06' E 005°53'0 0.0
2017-May-17 01:58N 43°06' E 005°53'0 0.0
2017-May-17 01:28N 43°06' E 005°53'0 0.0
2017-May-17 00:57N 43°06' E 005°53'0 0.0
2017-May-17 00:28N 43°06' E 005°53'0 0.0
2017-May-17 00:00N 43°06' E 005°53'0 0.0
2017-May-16 23:28N 43°06' E 005°53'0 0.0
2017-May-16 22:58N 43°06' E 005°53'0 0.0
2017-May-16 22:30N 43°06' E 005°53'0 0.0
2017-May-16 21:57N 43°06' E 005°53'0 0.0
2017-May-16 21:27N 43°06' E 005°53'0 0.0
2017-May-16 20:57N 43°06' E 005°53'0 0.0
2017-May-16 20:27N 43°06' E 005°53'0 0.0
2017-May-16 20:00N 43°06' E 005°53'0 0.0
2017-May-16 19:28N 43°06' E 005°53'0 0.0
2017-May-16 19:00N 43°06' E 005°53'0 0.0
2017-May-16 18:30N 43°06' E 005°53'0 0.0
2017-May-16 17:58N 43°06' E 005°53'0 0.0
2017-May-16 17:30N 43°06' E 005°53'0 0.0
2017-May-16 17:00N 43°06' E 005°53'0 0.0
2017-May-16 16:30N 43°06' E 005°53'0 0.0
2017-May-16 16:00N 43°06' E 005°53'0 0.0
2017-May-16 15:30N 43°06' E 005°53'0 0.0
2017-May-16 15:00N 43°06' E 005°53'0 0.0
2017-May-16 14:30N 43°06' E 005°53'0 0.0
2017-May-16 13:28N 43°06' E 005°53'0 0.0
2017-May-16 12:58N 43°06' E 005°53'0 0.0
2017-May-16 12:30N 43°06' E 005°53'0 0.0
2017-May-16 12:00N 43°06' E 005°53'0 0.0
2017-May-16 11:30N 43°06' E 005°53'0 0.0
2017-May-16 10:54N 43°06' E 005°53'0 0.0
2017-May-16 10:31N 43°06' E 005°53'0 0.0
2017-May-16 09:57N 43°06' E 005°53'0 0.0
2017-May-16 09:27N 43°06' E 005°53'0 0.0
2017-May-16 09:00N 43°06' E 005°53'0 0.0
2017-May-16 08:27N 43°06' E 005°53'0 0.0
2017-May-16 07:58N 43°06' E 005°53'0 0.0
2017-May-16 07:30N 43°06' E 005°53'0 0.0
2017-May-16 06:58N 43°06' E 005°53'0 0.0
2017-May-16 06:30N 43°06' E 005°53'0 0.0
2017-May-16 06:00N 43°06' E 005°53'0 0.0
2017-May-16 05:30N 43°06' E 005°53'0 0.0
2017-May-16 05:00N 43°06' E 005°53'0 0.0
2017-May-16 04:30N 43°06' E 005°53'0 0.0
2017-May-16 03:58N 43°06' E 005°53'0 0.0
2017-May-16 03:30N 43°06' E 005°53'0 0.0
2017-May-16 02:58N 43°06' E 005°53'0 0.0
2017-May-16 02:30N 43°06' E 005°53'0 0.0
2017-May-16 02:00N 43°06' E 005°53'0 0.0
2017-May-16 01:28N 43°06' E 005°53'0 0.0
2017-May-16 00:57N 43°06' E 005°53'0 0.0
2017-May-16 00:28N 43°06' E 005°53'0 0.0
2017-May-15 23:58N 43°06' E 005°53'0 0.0
2017-May-15 23:30N 43°06' E 005°53'0 0.0
2017-May-15 22:58N 43°06' E 005°53'0 0.0
2017-May-15 22:28N 43°06' E 005°53'0 0.0
2017-May-15 21:58N 43°06' E 005°53'0 0.0
2017-May-15 21:30N 43°06' E 005°53'0 0.0
2017-May-15 20:58N 43°06' E 005°53'0 0.0
2017-May-15 20:28N 43°06' E 005°53'0 0.0
2017-May-15 20:00N 43°06' E 005°53'0 0.0
2017-May-15 19:30N 43°06' E 005°53'0 0.0
2017-May-15 19:00N 43°06' E 005°53'0 0.0
2017-May-15 18:30N 43°06' E 005°53'0 0.0
2017-May-15 17:57N 43°06' E 005°53'0 0.0
2017-May-15 17:27N 43°06' E 005°53'0 0.0
2017-May-15 16:58N 43°06' E 005°53'0 0.0
2017-May-15 16:28N 43°06' E 005°53'0 0.0
2017-May-15 15:58N 43°06' E 005°53'0 0.0
2017-May-15 15:30N 43°06' E 005°53'0 0.0
2017-May-15 14:57N 43°06' E 005°53'0 0.0
2017-May-15 14:31N 43°06' E 005°53'0 0.0
2017-May-15 13:30N 43°06' E 005°53'0 0.0
2017-May-15 12:58N 43°06' E 005°53'0 0.0
2017-May-15 12:30N 43°06' E 005°53'0 0.0
2017-May-15 11:57N 43°06' E 005°53'0 0.0
2017-May-15 11:28N 43°06' E 005°53'0 0.0
2017-May-15 10:57N 43°06' E 005°53'0 0.0
2017-May-15 10:27N 43°06' E 005°53'0 0.0
2017-May-15 09:57N 43°06' E 005°53'0 0.0
2017-May-15 09:28N 43°06' E 005°53'0 0.0
2017-May-15 09:00N 43°06' E 005°53'0 0.0
2017-May-15 08:28N 43°06' E 005°53'0 0.0
2017-May-15 07:58N 43°06' E 005°53'0 0.0
2017-May-15 07:30N 43°06' E 005°53'0 0.0
2017-May-15 07:00N 43°06' E 005°53'0 0.0
2017-May-15 06:30N 43°06' E 005°53'0 0.0
2017-May-15 06:00N 43°06' E 005°53'0 0.0
2017-May-15 05:30N 43°06' E 005°53'0 0.0
2017-May-15 05:00N 43°06' E 005°53'0 0.0
2017-May-15 04:30N 43°06' E 005°53'0 0.0
2017-May-15 04:00N 43°06' E 005°53'0 0.0
2017-May-15 03:30N 43°06' E 005°53'0 0.0
2017-May-15 03:00N 43°06' E 005°53'0 0.0
2017-May-15 02:30N 43°06' E 005°53'0 0.0
2017-May-15 02:00N 43°06' E 005°53'0 0.0
2017-May-15 01:30N 43°06' E 005°53'0 0.0
2017-May-15 01:01N 43°06' E 005°53'0 0.0
2017-May-15 00:30N 43°06' E 005°53'0 0.0
2017-May-15 00:00N 43°06' E 005°53'0 0.0
2017-May-14 23:30N 43°06' E 005°53'0 0.0
2017-May-14 23:00N 43°06' E 005°53'0 0.0
2017-May-14 22:30N 43°06' E 005°53'0 0.0
2017-May-14 22:00N 43°06' E 005°53'0 0.0
2017-May-14 21:30N 43°06' E 005°53'0 0.0
2017-May-14 21:01N 43°06' E 005°53'0 0.0
2017-May-14 20:30N 43°06' E 005°53'0 0.0
2017-May-14 20:00N 43°06' E 005°53'0 0.0
2017-May-14 19:30N 43°06' E 005°53'0 0.0
2017-May-14 19:00N 43°06' E 005°53'0 0.0
2017-May-14 18:30N 43°06' E 005°53'0 0.0
2017-May-14 18:00N 43°06' E 005°53'0 0.0
2017-May-14 17:30N 43°06' E 005°53'0 0.0
2017-May-14 17:00N 43°06' E 005°53'0 0.0
2017-May-14 16:30N 43°06' E 005°53'0 0.0
2017-May-14 16:00N 43°06' E 005°53'0 0.0
2017-May-14 15:30N 43°06' E 005°53'0 0.0
2017-May-14 15:00N 43°06' E 005°53'0 0.0
2017-May-14 14:30N 43°06' E 005°53'0 0.0
2017-May-14 13:27N 43°06' E 005°53'0 0.0
2017-May-14 13:00N 43°06' E 005°53'0 0.0
2017-May-14 12:30N 43°06' E 005°53'0 0.0
2017-May-14 12:00N 43°06' E 005°53'0 0.0
2017-May-14 11:30N 43°06' E 005°53'0 0.0
2017-May-14 11:00N 43°06' E 005°53'0 0.0
2017-May-14 10:30N 43°06' E 005°53'0 0.0
2017-May-14 10:00N 43°06' E 005°53'0 0.0
2017-May-14 09:30N 43°06' E 005°53'0 0.0
2017-May-14 09:00N 43°06' E 005°53'0 0.0
2017-May-14 08:30N 43°06' E 005°53'0 0.0
2017-May-14 08:00N 43°06' E 005°53'0 0.0
2017-May-14 07:30N 43°06' E 005°53'0 0.0
2017-May-14 07:00N 43°06' E 005°53'0 0.0
2017-May-14 06:24N 43°06' E 005°53'0 0.0
2017-May-14 06:00N 43°06' E 005°53'0 0.0
2017-May-14 05:30N 43°06' E 005°53'0 0.0
2017-May-14 05:00N 43°06' E 005°53'0 0.0
2017-May-14 04:30N 43°06' E 005°53'0 0.0
2017-May-14 04:00N 43°06' E 005°53'0 0.0
2017-May-14 03:30N 43°06' E 005°53'0 0.0
2017-May-14 03:00N 43°06' E 005°53'0 0.0
2017-May-14 02:30N 43°06' E 005°53'0 0.0
2017-May-14 02:00N 43°06' E 005°53'0 0.0
2017-May-14 01:30N 43°06' E 005°53'0 0.0
2017-May-14 01:00N 43°06' E 005°53'0 0.0
2017-May-14 00:30N 43°06' E 005°53'0 0.0
2017-May-14 00:00N 43°06' E 005°53'0 0.0
2017-May-13 23:30N 43°06' E 005°53'0 0.0
2017-May-13 23:00N 43°06' E 005°53'0 0.0
2017-May-13 22:30N 43°06' E 005°53'0 0.0
2017-May-13 22:00N 43°06' E 005°53'0 0.0
2017-May-13 21:30N 43°06' E 005°53'0 0.0
2017-May-13 21:00N 43°06' E 005°53'0 0.0
2017-May-13 20:30N 43°06' E 005°53'0 0.0
2017-May-13 19:57N 43°06' E 005°53'0 0.0
2017-May-13 19:30N 43°06' E 005°53'0 0.0
2017-May-13 19:00N 43°06' E 005°53'0 0.0
2017-May-13 18:30N 43°06' E 005°53'0 0.0
2017-May-13 18:00N 43°06' E 005°53'0 0.0
2017-May-13 17:30N 43°06' E 005°53'0 0.0
2017-May-13 17:00N 43°06' E 005°53'0 0.0
2017-May-13 16:30N 43°06' E 005°53'0 0.0
2017-May-13 16:00N 43°06' E 005°53'0 0.0
2017-May-13 15:30N 43°06' E 005°53'0 0.0
2017-May-13 15:00N 43°06' E 005°53'0 0.0
2017-May-13 14:30N 43°06' E 005°53'0 0.0
2017-May-13 13:30N 43°06' E 005°53'0 0.0
2017-May-13 13:00N 43°06' E 005°53'0 0.0
2017-May-13 12:30N 43°06' E 005°53'0 0.0
2017-May-13 12:00N 43°06' E 005°53'0 0.0
2017-May-13 11:30N 43°06' E 005°53'0 0.0
2017-May-13 11:00N 43°06' E 005°53'0 0.0
2017-May-13 10:30N 43°06' E 005°53'0 0.0
2017-May-13 10:00N 43°06' E 005°53'0 0.0
2017-May-13 09:30N 43°06' E 005°53'0 0.0
2017-May-13 09:00N 43°06' E 005°53'0 0.0
2017-May-13 08:30N 43°06' E 005°53'0 0.0
2017-May-13 08:00N 43°06' E 005°53'0 0.0
2017-May-13 07:30N 43°06' E 005°53'0 0.0
2017-May-13 07:00N 43°06' E 005°53'0 0.0
2017-May-13 06:30N 43°06' E 005°53'0 0.0
2017-May-13 06:00N 43°06' E 005°53'0 0.0
2017-May-13 05:30N 43°06' E 005°53'0 0.0
2017-May-13 05:00N 43°06' E 005°53'0 0.0
2017-May-13 04:30N 43°06' E 005°53'0 0.0
2017-May-13 04:00N 43°06' E 005°53'0 0.0
2017-May-13 03:30N 43°06' E 005°53'0 0.0
2017-May-13 03:00N 43°06' E 005°53'0 0.0
2017-May-13 02:30N 43°06' E 005°53'0 0.0
2017-May-13 02:00N 43°06' E 005°53'0 0.0
2017-May-13 01:30N 43°06' E 005°53'0 0.0
2017-May-13 01:00N 43°06' E 005°53'0 0.0
2017-May-13 00:30N 43°06' E 005°53'0 0.0
2017-May-13 00:00N 43°06' E 005°53'0 0.0
2017-May-12 23:30N 43°06' E 005°53'0 0.0
2017-May-12 23:00N 43°06' E 005°53'0 0.0
2017-May-12 22:30N 43°06' E 005°53'0 0.0
2017-May-12 22:00N 43°06' E 005°53'0 0.0
2017-May-12 21:30N 43°06' E 005°53'0 0.0
2017-May-12 21:00N 43°06' E 005°53'0 0.0
2017-May-12 20:30N 43°06' E 005°53'0 0.0
2017-May-12 20:00N 43°06' E 005°53'0 0.0
2017-May-12 19:30N 43°06' E 005°53'0 0.0
2017-May-12 19:00N 43°06' E 005°53'0 0.0
2017-May-12 18:30N 43°06' E 005°53'0 0.0
2017-May-12 18:00N 43°06' E 005°53'0 0.0
2017-May-12 17:30N 43°06' E 005°53'0 0.0
2017-May-12 17:00N 43°06' E 005°53'0 0.0
2017-May-12 16:30N 43°06' E 005°53'0 0.0
2017-May-12 16:00N 43°06' E 005°53'0 0.0
2017-May-12 15:30N 43°06' E 005°53'0 0.0
2017-May-12 15:00N 43°06' E 005°53'0 0.0
2017-May-12 14:00N 43°06' E 005°53'0 0.0
2017-May-12 13:30N 43°06' E 005°53'0 0.0
2017-May-12 13:00N 43°06' E 005°53'0 0.0
2017-May-12 12:30N 43°06' E 005°53'0 0.0
2017-May-12 12:00N 43°06' E 005°53'0 0.0
2017-May-12 11:30N 43°06' E 005°53'0 0.0
2017-May-12 10:57N 43°06' E 005°53'0 0.0
2017-May-12 10:30N 43°06' E 005°53'0 0.0
2017-May-12 09:57N 43°06' E 005°53'0 0.0
2017-May-12 09:30N 43°06' E 005°53'0 0.0
2017-May-12 09:00N 43°06' E 005°53'0 0.0
2017-May-12 08:30N 43°06' E 005°53'0 0.0
2017-May-12 08:00N 43°06' E 005°53'0 0.0
2017-May-12 07:30N 43°06' E 005°53'0 0.0
2017-May-12 07:00N 43°06' E 005°53'0 0.0
2017-May-12 06:30N 43°06' E 005°53'0 0.0
2017-May-12 06:00N 43°06' E 005°53'0 0.0
2017-May-12 05:24N 43°06' E 005°53'0 0.0
2017-May-12 05:00N 43°06' E 005°53'0 0.0
2017-May-12 04:27N 43°06' E 005°53'0 0.0
2017-May-12 04:00N 43°06' E 005°53'0 0.0
2017-May-12 03:30N 43°06' E 005°53'0 0.0
2017-May-12 03:00N 43°06' E 005°53'0 0.0
2017-May-12 02:30N 43°06' E 005°53'0 0.0
2017-May-12 02:00N 43°06' E 005°53'0 0.0
2017-May-12 01:30N 43°06' E 005°53'0 0.0
2017-May-12 01:00N 43°06' E 005°53'0 0.0
2017-May-12 00:30N 43°06' E 005°53'0 0.0
2017-May-12 00:00N 43°06' E 005°53'0 0.0
2017-May-11 23:30N 43°06' E 005°53'0 0.0
2017-May-11 23:00N 43°06' E 005°53'0 0.0
2017-May-11 22:31N 43°06' E 005°53'0 0.0
2017-May-11 22:00N 43°06' E 005°53'0 0.0
2017-May-11 21:30N 43°06' E 005°53'0 0.0
2017-May-11 21:00N 43°06' E 005°53'0 0.0
2017-May-11 20:30N 43°06' E 005°53'0 0.0
2017-May-11 20:00N 43°06' E 005°53'0 0.0
2017-May-11 19:30N 43°06' E 005°53'0 0.0
2017-May-11 19:00N 43°06' E 005°53'0 0.0
2017-May-11 18:30N 43°06' E 005°53'0 0.0
2017-May-11 18:00N 43°06' E 005°53'0 0.0
2017-May-11 17:30N 43°06' E 005°53'0 0.0
2017-May-11 17:00N 43°06' E 005°53'0 0.0
2017-May-11 16:30N 43°06' E 005°53'0 0.0
2017-May-11 16:00N 43°06' E 005°53'  

Dump ship's entire track history